EmailTwitter


Surface observations / France / LFBO (07630)

Regions: Quebec | Canada | USA | Europe | France | UK | Elsewhere
Station
Display
Info & Location for LFBO (07630) | Help decoding METAR

Weather Conditions observed on 2019/04/25 at 06:00 UTC at TOULOUSE/BLAGNAC, FR (LFBO)

Sky conditions: partly cloudy.

Temperature: 12.0 Celsius.

Dewpoint: 10.0 Celsius.

Relative Humidity: 88%

Windchill Factor: 10.

Winds: North-northwest at 20 km/h or 11 knots.

Mean Sea level Pressure: 100.40 kilopascals.

Horizontal visibility: 6.21 statute miles or 9.94 kilometers.

Height of the Ceiling: 1250 metres ( 4100 feet ).

Coded METAR:

LFBO 250600Z AUTO 34011KT 9999 BKN041 BKN066 BKN076 12/10 Q1004 TEMPO 4000 +RA=